createdAt,value
2017-09-09T01:20:39.241Z,98.50
2017-09-09T02:03:17.942Z,98.30
2017-09-09T02:06:12.427Z,98.40
2017-09-09T02:09:02.268Z,98.50
2017-09-09T02:12:05.660Z,98.40
2017-09-09T02:14:34.837Z,98.30
2017-09-09T02:35:21.069Z,98.50
2017-09-09T03:55:02.257Z,97.70
2017-09-09T04:09:41.196Z,97.70
2017-09-09T04:12:10.891Z,97.60
2017-09-09T04:15:01.983Z,97.80
2017-09-09T04:17:45.182Z,97.90
2017-09-09T05:17:24.995Z,97.50
2017-09-09T05:20:00.363Z,97.30
2017-09-09T05:22:28.953Z,97.70
2017-09-09T05:25:00.694Z,97.50
2017-09-09T05:27:31.272Z,97.40
2017-09-09T05:30:00.481Z,97.50
2017-09-09T05:35:08.906Z,97.60
2017-09-09T05:37:39.123Z,97.90
2017-09-09T05:40:09.329Z,97.20
2017-09-09T05:42:44.659Z,97.60
2017-09-09T05:45:20.767Z,97.30
2017-09-09T05:50:53.607Z,97.50
2017-09-09T06:02:24.845Z,97.20
2017-09-09T06:04:58.244Z,97.20
2017-09-09T06:07:45.825Z,97.10
2017-09-09T06:10:18.513Z,97.20
2017-09-09T06:12:52.109Z,97.20
2017-09-09T06:18:24.545Z,97.20
2017-09-09T06:21:06.165Z,97.40
2017-09-09T06:23:47.557Z,97.40
2017-09-09T06:29:23.872Z,97.90
2017-09-09T06:43:23.595Z,97.80
2017-09-09T07:05:05.629Z,97.90
2017-09-09T08:21:50.372Z,97.60
2017-09-09T08:24:20.056Z,97.50
2017-09-09T08:27:12.059Z,97.40
2017-09-09T08:29:42.883Z,97.60
2017-09-09T08:32:14.132Z,97.60
2017-09-09T08:50:10.675Z,97.40
2017-09-09T08:58:40.804Z,97.30
2017-09-09T09:04:35.585Z,96.60
2017-09-09T09:13:24.907Z,97.10
2017-09-09T09:16:00.004Z,96.90
2017-09-09T09:18:49.164Z,97.30
2017-09-09T09:21:19.749Z,97.30
2017-09-09T09:27:27.853Z,96.90
2017-09-09T09:29:57.105Z,97.10
2017-09-09T09:32:25.441Z,96.70
2017-09-09T09:34:58.443Z,96.60
2017-09-09T09:37:37.746Z,96.70
2017-09-09T09:40:10.369Z,97.30
2017-09-09T09:42:39.968Z,97.20
2017-09-09T09:45:21.040Z,97.20
2017-09-09T09:48:19.207Z,97.10
2017-09-09T09:51:02.749Z,96.60
2017-09-09T10:00:00.034Z,95.60
2017-09-09T10:02:35.072Z,95.90
2017-09-09T10:05:10.143Z,95.50
2017-09-09T10:25:58.630Z,94.70
2017-09-09T10:50:55.572Z,95.80
2017-09-09T10:53:30.069Z,96.30
2017-09-09T10:56:25.017Z,96.00
2017-09-09T11:02:09.034Z,95.70
2017-09-09T11:04:58.397Z,95.70
2017-09-09T11:07:36.849Z,96.20
2017-09-09T11:10:05.763Z,96.10
2017-09-09T11:12:34.756Z,97.10
2017-09-09T11:15:10.330Z,97.30
2017-09-09T11:17:41.519Z,97.40
2017-09-09T11:20:13.537Z,97.50
2017-09-09T11:22:42.556Z,97.60
2017-09-09T11:25:25.661Z,97.20
2017-09-09T11:27:55.626Z,97.00
2017-09-09T11:30:25.710Z,97.00
2017-09-09T11:32:54.154Z,96.90
2017-09-09T11:35:25.645Z,96.30
2017-09-09T11:37:55.177Z,96.80
2017-09-09T11:40:25.885Z,97.00
2017-09-09T11:42:55.149Z,97.30
2017-09-09T11:45:23.628Z,96.60
2017-09-09T11:47:52.126Z,96.40
2017-09-09T11:50:33.586Z,95.70
2017-09-09T11:53:22.879Z,95.30
2017-09-09T11:55:54.348Z,95.40
2017-09-09T11:58:26.639Z,95.70
2017-09-09T12:00:58.557Z,95.80
2017-09-09T12:03:27.767Z,95.20
2017-09-09T12:05:56.248Z,95.90
2017-09-09T12:08:25.971Z,95.00
2017-09-09T12:11:00.721Z,95.60
2017-09-09T12:13:35.836Z,95.80
2017-09-09T12:16:09.737Z,95.80
2017-09-09T12:18:42.974Z,96.00
2017-09-09T12:21:20.455Z,95.70
2017-09-09T12:23:50.483Z,95.60
2017-09-09T12:26:40.228Z,95.60
2017-09-09T12:35:04.656Z,96.40
2017-09-09T12:37:33.026Z,96.20
2017-09-09T12:42:40.384Z,95.10
2017-09-09T12:48:01.976Z,95.40
2017-09-09T12:50:31.009Z,96.00
2017-09-09T12:52:59.127Z,95.90
2017-09-09T12:55:28.245Z,95.20
2017-09-09T12:57:57.172Z,93.50
2017-09-09T13:00:26.215Z,94.70
2017-09-09T13:02:54.332Z,95.10
2017-09-09T13:05:25.632Z,94.90
2017-09-09T13:07:53.851Z,96.00
2017-09-09T13:10:22.304Z,95.40
2017-09-09T13:12:56.697Z,93.40
2017-09-09T13:15:24.884Z,92.90
2017-09-09T13:18:00.723Z,92.40
2017-09-09T13:20:28.919Z,92.50
2017-09-09T13:22:57.017Z,93.50
2017-09-09T13:25:26.543Z,92.80
2017-09-09T13:27:54.963Z,92.80
2017-09-09T13:30:23.046Z,94.50
2017-09-09T13:32:51.652Z,94.50
2017-09-09T13:35:21.721Z,93.50
2017-09-09T13:37:50.004Z,94.10
2017-09-09T13:40:18.099Z,93.10
2017-09-09T13:42:49.984Z,93.80
2017-09-09T13:45:18.060Z,93.90
2017-09-09T13:47:46.260Z,92.30
2017-09-09T13:50:14.387Z,92.80
2017-09-09T13:52:46.597Z,92.00
2017-09-09T13:55:14.754Z,91.90
2017-09-09T13:57:45.508Z,92.40
2017-09-09T14:00:15.036Z,94.10
2017-09-09T14:02:43.866Z,93.40
2017-09-09T14:05:15.433Z,93.60
2017-09-09T14:07:43.705Z,93.50
2017-09-09T14:10:12.151Z,91.80
2017-09-09T14:12:40.971Z,90.10
2017-09-09T14:15:09.546Z,86.00
2017-09-09T14:17:38.228Z,87.70
2017-09-09T14:20:07.369Z,88.80
2017-09-09T14:22:35.754Z,89.90
2017-09-09T14:25:04.083Z,89.50
2017-09-09T14:27:32.475Z,89.00
2017-09-09T14:30:01.798Z,85.70
2017-09-09T14:32:30.821Z,85.70
2017-09-09T14:34:59.032Z,90.30
2017-09-09T14:37:29.442Z,89.00
2017-09-09T14:39:58.038Z,90.00
2017-09-09T14:42:30.641Z,90.30
2017-09-09T14:44:59.845Z,88.60
2017-09-09T14:47:29.557Z,88.50
2017-09-09T14:49:57.720Z,90.00
2017-09-09T14:52:29.032Z,91.60
2017-09-09T14:54:57.651Z,93.20
2017-09-09T14:57:29.003Z,92.60
2017-09-09T14:59:57.184Z,92.60
2017-09-09T15:02:27.411Z,93.40
2017-09-09T15:04:56.238Z,92.20
2017-09-09T15:07:24.683Z,93.30
2017-09-09T15:09:55.253Z,93.90
2017-09-09T15:12:24.161Z,94.30
2017-09-09T15:14:52.605Z,94.70
2017-09-09T15:17:21.092Z,93.20
2017-09-09T15:19:49.345Z,93.80
2017-09-09T15:22:19.102Z,94.60
2017-09-09T15:24:52.285Z,94.50
2017-09-09T15:27:20.453Z,95.00
2017-09-09T15:29:48.909Z,95.10
2017-09-09T15:32:23.016Z,94.70
2017-09-09T15:34:51.491Z,93.30
2017-09-09T15:37:20.449Z,93.30
2017-09-09T15:39:49.681Z,92.80
2017-09-09T15:42:25.674Z,94.30
2017-09-09T15:45:19.615Z,94.50
2017-09-09T15:47:50.497Z,92.90
2017-09-09T15:53:25.002Z,93.30
2017-09-09T15:55:53.841Z,93.20
2017-09-09T15:58:30.059Z,93.10
2017-09-09T16:00:59.069Z,91.30
2017-09-09T16:03:28.344Z,90.20
2017-09-09T16:05:57.330Z,90.80
2017-09-09T16:08:25.520Z,86.80
2017-09-09T16:10:54.414Z,83.90
2017-09-09T16:13:22.561Z,81.10
2017-09-09T16:15:51.647Z,80.80
2017-09-09T16:18:19.936Z,76.80
2017-09-09T16:20:48.025Z,74.60
2017-09-09T16:23:16.212Z,77.50
2017-09-09T16:25:45.211Z,76.30
2017-09-09T16:28:15.380Z,79.80
2017-09-09T16:30:43.819Z,79.70
2017-09-09T16:33:12.264Z,83.30
2017-09-09T16:35:41.751Z,84.40
2017-09-09T16:38:10.238Z,84.30
2017-09-09T16:40:41.712Z,90.30
2017-09-09T16:43:10.749Z,91.70
2017-09-09T16:45:39.523Z,83.10
2017-09-09T16:48:11.769Z,90.00
2017-09-09T16:50:44.819Z,91.10
2017-09-09T16:53:18.413Z,90.90
2017-09-09T16:55:46.560Z,90.80
2017-09-09T16:58:15.488Z,92.10
2017-09-09T17:00:43.858Z,90.70
2017-09-09T17:03:13.303Z,91.90
2017-09-09T17:05:44.660Z,91.10
2017-09-09T17:08:13.172Z,92.30
2017-09-09T17:10:41.627Z,91.80
2017-09-09T17:13:09.805Z,92.50
2017-09-09T17:15:38.045Z,90.90
2017-09-09T17:18:08.330Z,91.50
2017-09-09T17:20:37.389Z,92.00
2017-09-09T17:23:06.384Z,92.40
2017-09-09T17:25:34.866Z,92.80
2017-09-09T17:28:03.865Z,93.20
2017-09-09T17:30:32.413Z,93.90
2017-09-09T17:33:01.430Z,93.90
2017-09-09T17:35:33.852Z,93.70
2017-09-09T17:38:02.262Z,92.80
2017-09-09T17:40:31.254Z,93.40
2017-09-09T17:43:00.696Z,93.10
2017-09-09T17:45:28.813Z,93.70
2017-09-09T17:47:58.209Z,93.90
2017-09-09T17:50:29.810Z,94.20
2017-09-09T17:52:59.561Z,94.40
2017-09-09T17:55:27.648Z,94.40
2017-09-09T17:57:57.712Z,94.80
2017-09-09T18:00:26.955Z,95.00
2017-09-09T18:02:55.412Z,94.80
2017-09-09T18:05:47.164Z,95.00
2017-09-09T18:08:15.267Z,95.20
2017-09-09T18:10:44.488Z,94.90
2017-09-09T18:13:13.550Z,95.00
2017-09-09T18:15:45.084Z,94.80
2017-09-09T18:18:17.151Z,95.00
2017-09-09T18:20:45.640Z,95.10
2017-09-09T18:23:14.771Z,95.00
2017-09-09T18:25:51.475Z,95.20
2017-09-09T18:28:19.579Z,95.50
2017-09-09T18:30:55.173Z,95.40
2017-09-09T18:33:25.348Z,95.10
2017-09-09T18:35:54.601Z,95.00
2017-09-09T18:38:49.006Z,95.00
2017-09-09T18:44:05.422Z,95.20
2017-09-09T18:46:47.973Z,95.10
2017-09-09T18:49:17.722Z,95.20
2017-09-09T18:51:46.511Z,95.10
2017-09-09T18:54:35.366Z,95.30
2017-09-09T18:57:04.780Z,95.30
2017-09-09T18:59:35.215Z,95.30
2017-09-09T19:02:07.106Z,96.10
2017-09-09T19:04:49.065Z,95.40
2017-09-09T19:07:18.394Z,95.50
2017-09-09T19:09:58.172Z,95.60
2017-09-09T19:12:26.358Z,95.50
2017-09-09T19:15:15.480Z,95.70
2017-09-09T19:17:47.349Z,95.70
2017-09-09T19:20:17.466Z,95.60
2017-09-09T19:26:00.239Z,95.00
2017-09-09T19:28:34.960Z,95.30
2017-09-09T19:31:03.993Z,95.60
2017-09-09T19:33:32.288Z,95.60
2017-09-09T19:39:02.744Z,95.40
2017-09-09T19:41:32.902Z,95.20
2017-09-09T19:47:04.569Z,95.60
2017-09-09T19:49:38.917Z,95.40
2017-09-09T19:52:10.076Z,95.70
2017-09-09T19:54:40.205Z,95.10
2017-09-09T19:57:22.336Z,95.20
2017-09-09T19:59:56.677Z,95.70
2017-09-09T20:05:28.923Z,95.80
2017-09-09T20:08:08.254Z,95.70
2017-09-09T20:10:49.976Z,95.90
2017-09-09T20:13:40.247Z,96.20
2017-09-09T20:16:14.864Z,96.00
2017-09-09T20:18:43.457Z,96.00
2017-09-09T20:21:16.045Z,95.50
2017-09-09T20:23:44.634Z,95.50
2017-09-09T20:26:23.556Z,95.50
2017-09-09T20:46:51.176Z,95.80
2017-09-09T20:49:38.211Z,96.00
2017-09-09T20:52:07.129Z,95.80
2017-09-09T20:54:36.101Z,95.40
2017-09-09T20:57:04.473Z,95.40
2017-09-09T20:59:32.613Z,95.50
2017-09-09T21:02:01.302Z,95.70
2017-09-09T21:04:29.737Z,95.60
2017-09-09T21:06:59.120Z,95.50
2017-09-09T21:09:28.234Z,95.80
2017-09-09T21:11:56.599Z,96.10
2017-09-09T21:14:25.879Z,96.20
2017-09-09T21:16:54.017Z,96.10
2017-09-09T21:19:22.145Z,95.90
2017-09-09T21:21:50.404Z,95.80
2017-09-09T21:24:18.811Z,95.90
2017-09-09T21:26:46.942Z,96.00
2017-09-09T21:29:15.349Z,95.60
2017-09-09T21:31:43.457Z,95.30
2017-09-09T21:34:11.560Z,95.40
2017-09-09T21:36:39.655Z,95.30
2017-09-09T21:39:07.805Z,95.30
2017-09-09T21:41:36.196Z,95.70
2017-09-09T21:44:04.358Z,95.90
2017-09-09T21:46:32.474Z,95.40
2017-09-09T21:49:00.588Z,95.70
2017-09-09T21:51:30.766Z,95.90
2017-09-09T21:53:58.852Z,95.50
2017-09-09T21:56:27.322Z,95.70
2017-09-09T21:58:57.556Z,95.50
2017-09-09T22:01:26.477Z,95.20
2017-09-09T22:03:54.903Z,95.20
2017-09-09T22:06:23.413Z,95.70
2017-09-09T22:08:51.743Z,95.60
2017-09-09T22:11:22.012Z,95.60
2017-09-09T22:13:50.189Z,95.60
2017-09-09T22:16:18.412Z,95.50
2017-09-09T22:18:46.520Z,95.70
2017-09-09T22:21:14.634Z,95.80
2017-09-09T22:23:42.740Z,95.60
2017-09-09T22:26:12.229Z,95.70
2017-09-09T22:28:43.875Z,95.80
2017-09-09T22:31:12.971Z,95.20
2017-09-09T22:33:41.100Z,95.50
2017-09-09T22:36:09.222Z,95.70
2017-09-09T22:38:37.355Z,95.30
2017-09-09T22:41:05.544Z,95.40
2017-09-09T22:43:33.620Z,95.30
2017-09-09T22:46:01.715Z,95.60
2017-09-09T22:48:29.827Z,95.40
2017-09-09T22:50:59.972Z,96.00
2017-09-09T22:53:28.142Z,95.80
2017-09-09T22:55:58.301Z,95.40
2017-09-09T22:58:30.175Z,95.60
2017-09-09T23:00:59.224Z,95.70
2017-09-09T23:03:27.488Z,95.50
2017-09-09T23:05:55.640Z,95.80
2017-09-09T23:08:24.107Z,95.60
2017-09-09T23:10:52.508Z,95.60
2017-09-09T23:13:21.419Z,95.60
2017-09-09T23:15:51.705Z,95.80
2017-09-09T23:18:19.812Z,95.30
2017-09-09T23:20:48.084Z,95.40
2017-09-09T23:23:16.448Z,95.80
2017-09-09T23:25:44.656Z,95.60
2017-09-09T23:28:12.712Z,95.90
2017-09-09T23:30:41.859Z,96.00
2017-09-09T23:33:11.056Z,95.80
2017-09-09T23:35:39.152Z,95.70
2017-09-09T23:38:08.049Z,95.80
2017-09-09T23:40:36.123Z,95.70
2017-09-09T23:43:04.300Z,95.50
2017-09-09T23:45:32.404Z,95.90
2017-09-09T23:48:00.487Z,95.70
2017-09-09T23:50:28.591Z,95.40
2017-09-09T23:52:56.673Z,95.40
2017-09-09T23:55:25.555Z,95.60
2017-09-09T23:57:54.563Z,95.40
